sensor_id;sensor_type;location;lat;lon;timestamp;P1;durP1;ratioP1;P2;durP2;ratioP2
45114;SDS011;30877;43.706;10.780;2022-10-16T00:01:34;7.88;;;4.32;;
45114;SDS011;30877;43.706;10.780;2022-10-16T00:04:02;6.40;;;4.78;;
45114;SDS011;30877;43.706;10.780;2022-10-16T00:06:30;5.93;;;4.57;;
45114;SDS011;30877;43.706;10.780;2022-10-16T00:08:59;5.38;;;4.50;;
45114;SDS011;30877;43.706;10.780;2022-10-16T00:11:30;8.88;;;4.95;;
45114;SDS011;30877;43.706;10.780;2022-10-16T00:14:04;7.63;;;4.70;;
45114;SDS011;30877;43.706;10.780;2022-10-16T00:16:34;6.22;;;4.68;;
45114;SDS011;30877;43.706;10.780;2022-10-16T00:19:03;8.38;;;5.00;;
45114;SDS011;30877;43.706;10.780;2022-10-16T00:21:32;6.57;;;4.40;;
45114;SDS011;30877;43.706;10.780;2022-10-16T00:24:01;6.53;;;4.75;;
45114;SDS011;30877;43.706;10.780;2022-10-16T00:26:33;7.03;;;5.13;;
45114;SDS011;30877;43.706;10.780;2022-10-16T00:29:02;7.95;;;4.65;;
45114;SDS011;30877;43.706;10.780;2022-10-16T00:31:30;8.55;;;4.75;;
45114;SDS011;30877;43.706;10.780;2022-10-16T00:33:58;8.00;;;4.40;;
45114;SDS011;30877;43.706;10.780;2022-10-16T00:36:27;6.22;;;4.45;;
45114;SDS011;30877;43.706;10.780;2022-10-16T00:38:56;7.47;;;4.68;;
45114;SDS011;30877;43.706;10.780;2022-10-16T00:41:32;9.93;;;4.60;;
45114;SDS011;30877;43.706;10.780;2022-10-16T00:44:01;8.07;;;4.57;;
45114;SDS011;30877;43.706;10.780;2022-10-16T00:46:33;6.00;;;4.47;;
45114;SDS011;30877;43.706;10.780;2022-10-16T00:49:05;6.45;;;3.90;;
45114;SDS011;30877;43.706;10.780;2022-10-16T00:51:43;6.32;;;4.05;;
45114;SDS011;30877;43.706;10.780;2022-10-16T00:54:13;7.28;;;4.18;;
45114;SDS011;30877;43.706;10.780;2022-10-16T00:56:44;7.22;;;4.70;;
45114;SDS011;30877;43.706;10.780;2022-10-16T00:59:14;8.88;;;4.20;;
45114;SDS011;30877;43.706;10.780;2022-10-16T01:01:45;6.88;;;4.00;;
45114;SDS011;30877;43.706;10.780;2022-10-16T01:04:12;6.57;;;4.50;;
45114;SDS011;30877;43.706;10.780;2022-10-16T01:06:42;6.05;;;4.55;;
45114;SDS011;30877;43.706;10.780;2022-10-16T01:11:51;4.57;;;3.85;;
45114;SDS011;30877;43.706;10.780;2022-10-16T01:14:29;7.05;;;4.22;;
45114;SDS011;30877;43.706;10.780;2022-10-16T01:17:04;5.40;;;3.70;;
45114;SDS011;30877;43.706;10.780;2022-10-16T01:19:43;7.28;;;3.88;;
45114;SDS011;30877;43.706;10.780;2022-10-16T01:22:18;7.50;;;4.00;;
45114;SDS011;30877;43.706;10.780;2022-10-16T01:24:50;5.50;;;4.07;;
45114;SDS011;30877;43.706;10.780;2022-10-16T01:27:23;6.72;;;4.15;;
45114;SDS011;30877;43.706;10.780;2022-10-16T01:29:54;7.43;;;4.38;;
45114;SDS011;30877;43.706;10.780;2022-10-16T01:32:30;5.55;;;4.00;;
45114;SDS011;30877;43.706;10.780;2022-10-16T01:35:04;4.50;;;3.85;;
45114;SDS011;30877;43.706;10.780;2022-10-16T01:37:36;13.43;;;4.40;;
45114;SDS011;30877;43.706;10.780;2022-10-16T01:40:10;6.50;;;4.00;;
45114;SDS011;30877;43.706;10.780;2022-10-16T01:42:41;5.70;;;4.13;;
45114;SDS011;30877;43.706;10.780;2022-10-16T01:45:13;6.85;;;4.35;;
45114;SDS011;30877;43.706;10.780;2022-10-16T01:47:45;6.65;;;4.07;;
45114;SDS011;30877;43.706;10.780;2022-10-16T01:50:14;7.05;;;4.75;;
45114;SDS011;30877;43.706;10.780;2022-10-16T01:52:45;7.47;;;5.50;;
45114;SDS011;30877;43.706;10.780;2022-10-16T01:55:17;7.07;;;5.68;;
45114;SDS011;30877;43.706;10.780;2022-10-16T01:57:51;6.47;;;5.57;;
45114;SDS011;30877;43.706;10.780;2022-10-16T02:00:22;9.00;;;6.47;;
45114;SDS011;30877;43.706;10.780;2022-10-16T02:02:51;11.07;;;7.45;;
45114;SDS011;30877;43.706;10.780;2022-10-16T02:05:23;12.70;;;7.43;;
45114;SDS011;30877;43.706;10.780;2022-10-16T02:07:55;14.50;;;7.85;;
45114;SDS011;30877;43.706;10.780;2022-10-16T02:10:26;11.02;;;8.25;;
45114;SDS011;30877;43.706;10.780;2022-10-16T02:13:01;11.88;;;8.00;;
45114;SDS011;30877;43.706;10.780;2022-10-16T02:15:33;10.57;;;8.20;;
45114;SDS011;30877;43.706;10.780;2022-10-16T02:18:01;11.27;;;7.53;;
45114;SDS011;30877;43.706;10.780;2022-10-16T02:20:31;10.82;;;8.27;;
45114;SDS011;30877;43.706;10.780;2022-10-16T02:23:03;9.48;;;7.95;;
45114;SDS011;30877;43.706;10.780;2022-10-16T02:25:34;12.00;;;7.80;;
45114;SDS011;30877;43.706;10.780;2022-10-16T02:28:07;10.07;;;7.82;;
45114;SDS011;30877;43.706;10.780;2022-10-16T02:30:41;10.77;;;7.67;;
45114;SDS011;30877;43.706;10.780;2022-10-16T02:33:11;8.98;;;7.45;;
45114;SDS011;30877;43.706;10.780;2022-10-16T02:35:41;8.27;;;7.13;;
45114;SDS011;30877;43.706;10.780;2022-10-16T02:38:10;9.52;;;7.03;;
45114;SDS011;30877;43.706;10.780;2022-10-16T02:40:39;8.63;;;7.18;;
45114;SDS011;30877;43.706;10.780;2022-10-16T02:43:09;8.27;;;7.00;;
45114;SDS011;30877;43.706;10.780;2022-10-16T02:45:37;6.97;;;6.28;;
45114;SDS011;30877;43.706;10.780;2022-10-16T02:48:05;10.48;;;7.25;;
45114;SDS011;30877;43.706;10.780;2022-10-16T02:50:33;8.73;;;6.60;;
45114;SDS011;30877;43.706;10.780;2022-10-16T02:53:01;8.10;;;6.63;;
45114;SDS011;30877;43.706;10.780;2022-10-16T02:55:29;7.35;;;6.47;;
45114;SDS011;30877;43.706;10.780;2022-10-16T02:57:57;6.07;;;5.47;;
45114;SDS011;30877;43.706;10.780;2022-10-16T03:00:26;8.65;;;5.43;;
45114;SDS011;30877;43.706;10.780;2022-10-16T03:02:55;6.38;;;4.90;;
45114;SDS011;30877;43.706;10.780;2022-10-16T03:05:22;4.45;;;4.05;;
45114;SDS011;30877;43.706;10.780;2022-10-16T03:07:50;6.43;;;4.22;;
45114;SDS011;30877;43.706;10.780;2022-10-16T03:10:19;4.40;;;4.00;;
45114;SDS011;30877;43.706;10.780;2022-10-16T03:12:47;4.68;;;4.18;;
45114;SDS011;30877;43.706;10.780;2022-10-16T03:15:14;4.45;;;4.00;;
45114;SDS011;30877;43.706;10.780;2022-10-16T03:17:44;4.15;;;3.38;;
45114;SDS011;30877;43.706;10.780;2022-10-16T03:20:12;5.40;;;4.00;;
45114;SDS011;30877;43.706;10.780;2022-10-16T03:22:39;4.13;;;3.67;;
45114;SDS011;30877;43.706;10.780;2022-10-16T03:25:07;4.35;;;3.65;;
45114;SDS011;30877;43.706;10.780;2022-10-16T03:27:35;4.18;;;3.47;;
45114;SDS011;30877;43.706;10.780;2022-10-16T03:30:03;4.10;;;3.70;;
45114;SDS011;30877;43.706;10.780;2022-10-16T03:32:32;4.72;;;3.80;;
45114;SDS011;30877;43.706;10.780;2022-10-16T03:35:02;4.30;;;3.70;;
45114;SDS011;30877;43.706;10.780;2022-10-16T03:37:31;4.85;;;3.78;;
45114;SDS011;30877;43.706;10.780;2022-10-16T03:39:59;5.05;;;3.90;;
45114;SDS011;30877;43.706;10.780;2022-10-16T03:42:26;6.97;;;4.15;;
45114;SDS011;30877;43.706;10.780;2022-10-16T03:44:54;5.03;;;4.32;;
45114;SDS011;30877;43.706;10.780;2022-10-16T03:47:22;6.75;;;4.20;;
45114;SDS011;30877;43.706;10.780;2022-10-16T03:49:51;6.57;;;4.80;;
45114;SDS011;30877;43.706;10.780;2022-10-16T03:52:20;6.18;;;4.45;;
45114;SDS011;30877;43.706;10.780;2022-10-16T03:54:48;6.60;;;4.22;;
45114;SDS011;30877;43.706;10.780;2022-10-16T03:57:16;6.75;;;4.40;;
45114;SDS011;30877;43.706;10.780;2022-10-16T03:59:44;5.43;;;3.70;;
45114;SDS011;30877;43.706;10.780;2022-10-16T04:02:12;6.72;;;4.30;;
45114;SDS011;30877;43.706;10.780;2022-10-16T04:04:40;6.75;;;4.45;;
45114;SDS011;30877;43.706;10.780;2022-10-16T04:07:08;6.07;;;4.25;;
45114;SDS011;30877;43.706;10.780;2022-10-16T04:09:38;7.47;;;4.93;;
45114;SDS011;30877;43.706;10.780;2022-10-16T04:12:06;6.93;;;3.92;;
45114;SDS011;30877;43.706;10.780;2022-10-16T04:14:34;6.25;;;4.50;;
45114;SDS011;30877;43.706;10.780;2022-10-16T04:17:02;6.72;;;4.55;;
45114;SDS011;30877;43.706;10.780;2022-10-16T04:19:30;4.35;;;3.72;;
45114;SDS011;30877;43.706;10.780;2022-10-16T04:21:58;9.07;;;4.20;;
45114;SDS011;30877;43.706;10.780;2022-10-16T04:24:26;6.65;;;4.28;;
45114;SDS011;30877;43.706;10.780;2022-10-16T04:26:55;4.80;;;4.20;;
45114;SDS011;30877;43.706;10.780;2022-10-16T04:29:23;4.75;;;3.95;;
45114;SDS011;30877;43.706;10.780;2022-10-16T04:31:51;5.50;;;4.20;;
45114;SDS011;30877;43.706;10.780;2022-10-16T04:34:19;4.57;;;4.07;;
45114;SDS011;30877;43.706;10.780;2022-10-16T04:36:48;4.28;;;3.88;;
45114;SDS011;30877;43.706;10.780;2022-10-16T04:39:16;4.60;;;4.00;;
45114;SDS011;30877;43.706;10.780;2022-10-16T04:41:44;5.55;;;3.78;;
45114;SDS011;30877;43.706;10.780;2022-10-16T04:44:13;5.32;;;4.47;;
45114;SDS011;30877;43.706;10.780;2022-10-16T04:46:41;5.85;;;3.75;;
45114;SDS011;30877;43.706;10.780;2022-10-16T04:49:11;6.53;;;5.22;;
45114;SDS011;30877;43.706;10.780;2022-10-16T04:51:39;4.47;;;3.85;;
45114;SDS011;30877;43.706;10.780;2022-10-16T04:54:08;7.22;;;4.72;;
45114;SDS011;30877;43.706;10.780;2022-10-16T04:56:36;4.00;;;3.60;;
45114;SDS011;30877;43.706;10.780;2022-10-16T04:59:10;4.93;;;4.13;;
45114;SDS011;30877;43.706;10.780;2022-10-16T05:01:39;8.13;;;4.60;;
45114;SDS011;30877;43.706;10.780;2022-10-16T05:04:07;5.85;;;4.07;;
45114;SDS011;30877;43.706;10.780;2022-10-16T05:06:35;7.00;;;3.92;;
45114;SDS011;30877;43.706;10.780;2022-10-16T05:09:05;4.60;;;3.75;;
45114;SDS011;30877;43.706;10.780;2022-10-16T05:11:33;7.18;;;4.53;;
45114;SDS011;30877;43.706;10.780;2022-10-16T05:14:01;6.00;;;4.55;;
45114;SDS011;30877;43.706;10.780;2022-10-16T05:16:30;5.72;;;4.43;;
45114;SDS011;30877;43.706;10.780;2022-10-16T05:18:59;6.82;;;4.50;;
45114;SDS011;30877;43.706;10.780;2022-10-16T05:21:47;8.00;;;4.70;;
45114;SDS011;30877;43.706;10.780;2022-10-16T05:24:15;5.35;;;4.20;;
45114;SDS011;30877;43.706;10.780;2022-10-16T05:26:44;6.88;;;4.68;;
45114;SDS011;30877;43.706;10.780;2022-10-16T05:29:12;5.18;;;4.35;;
45114;SDS011;30877;43.706;10.780;2022-10-16T05:31:40;6.55;;;4.20;;
45114;SDS011;30877;43.706;10.780;2022-10-16T05:34:11;6.63;;;4.55;;
45114;SDS011;30877;43.706;10.780;2022-10-16T05:36:44;5.20;;;3.88;;
45114;SDS011;30877;43.706;10.780;2022-10-16T05:39:13;7.68;;;4.22;;
45114;SDS011;30877;43.706;10.780;2022-10-16T05:41:42;5.57;;;3.90;;
45114;SDS011;30877;43.706;10.780;2022-10-16T05:44:10;6.85;;;4.90;;
45114;SDS011;30877;43.706;10.780;2022-10-16T05:46:38;5.28;;;4.25;;
45114;SDS011;30877;43.706;10.780;2022-10-16T05:49:06;4.82;;;3.90;;
45114;SDS011;30877;43.706;10.780;2022-10-16T05:51:37;5.13;;;4.57;;
45114;SDS011;30877;43.706;10.780;2022-10-16T05:54:05;4.70;;;4.10;;
45114;SDS011;30877;43.706;10.780;2022-10-16T05:56:33;7.75;;;4.28;;
45114;SDS011;30877;43.706;10.780;2022-10-16T05:59:02;4.57;;;3.88;;
45114;SDS011;30877;43.706;10.780;2022-10-16T06:01:31;7.50;;;4.25;;
45114;SDS011;30877;43.706;10.780;2022-10-16T06:03:59;6.00;;;4.95;;
45114;SDS011;30877;43.706;10.780;2022-10-16T06:06:28;9.93;;;4.30;;
45114;SDS011;30877;43.706;10.780;2022-10-16T06:08:59;6.93;;;4.82;;
45114;SDS011;30877;43.706;10.780;2022-10-16T06:11:28;8.02;;;4.97;;
45114;SDS011;30877;43.706;10.780;2022-10-16T06:13:58;8.18;;;5.05;;
45114;SDS011;30877;43.706;10.780;2022-10-16T06:16:29;7.53;;;4.88;;
45114;SDS011;30877;43.706;10.780;2022-10-16T06:18:57;6.28;;;4.35;;
45114;SDS011;30877;43.706;10.780;2022-10-16T06:21:27;5.78;;;4.60;;
45114;SDS011;30877;43.706;10.780;2022-10-16T06:23:56;6.57;;;5.22;;
45114;SDS011;30877;43.706;10.780;2022-10-16T06:26:26;8.77;;;5.28;;
45114;SDS011;30877;43.706;10.780;2022-10-16T06:28:56;4.65;;;4.13;;
45114;SDS011;30877;43.706;10.780;2022-10-16T06:31:26;6.55;;;4.05;;
45114;SDS011;30877;43.706;10.780;2022-10-16T06:33:57;5.85;;;4.45;;
45114;SDS011;30877;43.706;10.780;2022-10-16T06:36:30;6.38;;;4.43;;
45114;SDS011;30877;43.706;10.780;2022-10-16T06:39:00;7.05;;;4.50;;
45114;SDS011;30877;43.706;10.780;2022-10-16T06:41:33;6.38;;;4.72;;
45114;SDS011;30877;43.706;10.780;2022-10-16T06:44:14;5.50;;;4.80;;
45114;SDS011;30877;43.706;10.780;2022-10-16T06:46:42;5.90;;;4.55;;
45114;SDS011;30877;43.706;10.780;2022-10-16T06:49:10;6.20;;;4.07;;
45114;SDS011;30877;43.706;10.780;2022-10-16T06:51:38;5.50;;;4.30;;
45114;SDS011;30877;43.706;10.780;2022-10-16T06:54:10;6.38;;;5.00;;
45114;SDS011;30877;43.706;10.780;2022-10-16T06:56:38;6.75;;;4.68;;
45114;SDS011;30877;43.706;10.780;2022-10-16T06:59:07;5.40;;;4.72;;
45114;SDS011;30877;43.706;10.780;2022-10-16T07:01:35;9.13;;;4.68;;
45114;SDS011;30877;43.706;10.780;2022-10-16T07:04:03;6.85;;;4.43;;
45114;SDS011;30877;43.706;10.780;2022-10-16T07:06:31;7.88;;;4.78;;
45114;SDS011;30877;43.706;10.780;2022-10-16T07:09:04;6.05;;;4.30;;
45114;SDS011;30877;43.706;10.780;2022-10-16T07:11:35;7.43;;;5.03;;
45114;SDS011;30877;43.706;10.780;2022-10-16T07:14:04;6.22;;;5.00;;
45114;SDS011;30877;43.706;10.780;2022-10-16T07:16:38;6.38;;;4.78;;
45114;SDS011;30877;43.706;10.780;2022-10-16T07:19:06;6.22;;;4.97;;
45114;SDS011;30877;43.706;10.780;2022-10-16T07:21:35;6.88;;;5.35;;
45114;SDS011;30877;43.706;10.780;2022-10-16T07:24:04;9.48;;;6.60;;
45114;SDS011;30877;43.706;10.780;2022-10-16T07:26:34;13.18;;;9.05;;
45114;SDS011;30877;43.706;10.780;2022-10-16T07:29:06;14.25;;;8.88;;
45114;SDS011;30877;43.706;10.780;2022-10-16T07:31:38;12.57;;;9.55;;
45114;SDS011;30877;43.706;10.780;2022-10-16T07:34:06;13.95;;;9.93;;
45114;SDS011;30877;43.706;10.780;2022-10-16T07:36:35;16.77;;;11.32;;
45114;SDS011;30877;43.706;10.780;2022-10-16T07:39:03;14.82;;;11.55;;
45114;SDS011;30877;43.706;10.780;2022-10-16T07:41:52;15.60;;;11.52;;
45114;SDS011;30877;43.706;10.780;2022-10-16T07:44:20;20.80;;;14.18;;
45114;SDS011;30877;43.706;10.780;2022-10-16T07:46:48;16.25;;;12.07;;
45114;SDS011;30877;43.706;10.780;2022-10-16T07:49:16;18.55;;;12.50;;
45114;SDS011;30877;43.706;10.780;2022-10-16T07:51:44;16.30;;;12.32;;
45114;SDS011;30877;43.706;10.780;2022-10-16T07:54:11;16.20;;;11.60;;
45114;SDS011;30877;43.706;10.780;2022-10-16T07:56:39;17.15;;;10.88;;
45114;SDS011;30877;43.706;10.780;2022-10-16T07:59:11;14.35;;;10.63;;
45114;SDS011;30877;43.706;10.780;2022-10-16T08:01:50;11.65;;;8.93;;
45114;SDS011;30877;43.706;10.780;2022-10-16T08:04:18;9.93;;;7.82;;
45114;SDS011;30877;43.706;10.780;2022-10-16T08:06:46;14.13;;;8.35;;
45114;SDS011;30877;43.706;10.780;2022-10-16T08:09:14;8.95;;;6.20;;
45114;SDS011;30877;43.706;10.780;2022-10-16T08:11:42;8.02;;;5.93;;
45114;SDS011;30877;43.706;10.780;2022-10-16T08:14:11;7.63;;;5.95;;
45114;SDS011;30877;43.706;10.780;2022-10-16T08:16:39;8.90;;;5.93;;
45114;SDS011;30877;43.706;10.780;2022-10-16T08:19:07;10.43;;;6.90;;
45114;SDS011;30877;43.706;10.780;2022-10-16T08:21:35;8.35;;;7.43;;
45114;SDS011;30877;43.706;10.780;2022-10-16T08:24:03;11.23;;;8.60;;
45114;SDS011;30877;43.706;10.780;2022-10-16T08:26:31;12.07;;;10.70;;
45114;SDS011;30877;43.706;10.780;2022-10-16T08:28:59;19.88;;;14.63;;
45114;SDS011;30877;43.706;10.780;2022-10-16T08:31:28;16.42;;;12.88;;
45114;SDS011;30877;43.706;10.780;2022-10-16T08:33:56;15.48;;;13.18;;
45114;SDS011;30877;43.706;10.780;2022-10-16T08:36:24;13.02;;;11.60;;
45114;SDS011;30877;43.706;10.780;2022-10-16T08:38:52;10.75;;;9.65;;
45114;SDS011;30877;43.706;10.780;2022-10-16T08:47:33;11.45;;;7.38;;
45114;SDS011;30877;43.706;10.780;2022-10-16T08:50:11;12.88;;;8.30;;
45114;SDS011;30877;43.706;10.780;2022-10-16T08:52:41;9.90;;;7.68;;
45114;SDS011;30877;43.706;10.780;2022-10-16T08:55:17;8.52;;;6.65;;
45114;SDS011;30877;43.706;10.780;2022-10-16T08:57:55;11.57;;;7.65;;
45114;SDS011;30877;43.706;10.780;2022-10-16T09:00:23;10.68;;;8.18;;
45114;SDS011;30877;43.706;10.780;2022-10-16T09:02:55;11.35;;;8.02;;
45114;SDS011;30877;43.706;10.780;2022-10-16T09:05:41;11.05;;;6.68;;
45114;SDS011;30877;43.706;10.780;2022-10-16T09:08:28;9.57;;;6.53;;
45114;SDS011;30877;43.706;10.780;2022-10-16T09:11:08;7.70;;;5.63;;
45114;SDS011;30877;43.706;10.780;2022-10-16T09:13:43;8.00;;;5.78;;
45114;SDS011;30877;43.706;10.780;2022-10-16T09:16:22;8.10;;;6.20;;
45114;SDS011;30877;43.706;10.780;2022-10-16T09:18:58;12.20;;;6.18;;
45114;SDS011;30877;43.706;10.780;2022-10-16T09:21:34;7.68;;;5.80;;
45114;SDS011;30877;43.706;10.780;2022-10-16T09:24:08;9.23;;;6.43;;
45114;SDS011;30877;43.706;10.780;2022-10-16T09:26:39;6.82;;;5.35;;
45114;SDS011;30877;43.706;10.780;2022-10-16T09:29:08;8.60;;;5.68;;
45114;SDS011;30877;43.706;10.780;2022-10-16T09:31:38;7.93;;;5.20;;
45114;SDS011;30877;43.706;10.780;2022-10-16T09:34:20;9.13;;;5.68;;
45114;SDS011;30877;43.706;10.780;2022-10-16T09:36:51;8.98;;;5.50;;
45114;SDS011;30877;43.706;10.780;2022-10-16T09:39:19;9.60;;;6.28;;
45114;SDS011;30877;43.706;10.780;2022-10-16T09:41:47;10.02;;;5.97;;
45114;SDS011;30877;43.706;10.780;2022-10-16T09:44:17;9.88;;;5.95;;
45114;SDS011;30877;43.706;10.780;2022-10-16T09:46:49;8.52;;;5.40;;
45114;SDS011;30877;43.706;10.780;2022-10-16T09:49:30;8.70;;;6.22;;
45114;SDS011;30877;43.706;10.780;2022-10-16T09:52:04;9.60;;;5.45;;
45114;SDS011;30877;43.706;10.780;2022-10-16T09:54:33;6.40;;;5.75;;
45114;SDS011;30877;43.706;10.780;2022-10-16T09:57:04;7.80;;;6.60;;
45114;SDS011;30877;43.706;10.780;2022-10-16T09:59:33;7.25;;;5.95;;
45114;SDS011;30877;43.706;10.780;2022-10-16T10:02:13;7.25;;;5.38;;
45114;SDS011;30877;43.706;10.780;2022-10-16T10:04:46;9.18;;;5.65;;
45114;SDS011;30877;43.706;10.780;2022-10-16T10:07:18;8.85;;;5.80;;
45114;SDS011;30877;43.706;10.780;2022-10-16T10:09:50;7.80;;;5.50;;
45114;SDS011;30877;43.706;10.780;2022-10-16T10:12:20;7.93;;;5.82;;
45114;SDS011;30877;43.706;10.780;2022-10-16T10:14:53;9.02;;;6.00;;
45114;SDS011;30877;43.706;10.780;2022-10-16T10:17:24;9.10;;;5.80;;
45114;SDS011;30877;43.706;10.780;2022-10-16T10:19:55;9.38;;;5.47;;
45114;SDS011;30877;43.706;10.780;2022-10-16T10:22:26;10.57;;;5.07;;
45114;SDS011;30877;43.706;10.780;2022-10-16T10:24:59;7.90;;;5.25;;
45114;SDS011;30877;43.706;10.780;2022-10-16T10:27:41;7.28;;;4.78;;
45114;SDS011;30877;43.706;10.780;2022-10-16T10:30:18;7.45;;;5.88;;
45114;SDS011;30877;43.706;10.780;2022-10-16T10:32:52;6.28;;;5.15;;
45114;SDS011;30877;43.706;10.780;2022-10-16T10:35:39;7.95;;;5.18;;
45114;SDS011;30877;43.706;10.780;2022-10-16T10:38:17;8.98;;;5.13;;
45114;SDS011;30877;43.706;10.780;2022-10-16T10:40:56;8.52;;;5.22;;
45114;SDS011;30877;43.706;10.780;2022-10-16T10:43:40;8.00;;;4.97;;
45114;SDS011;30877;43.706;10.780;2022-10-16T10:46:19;7.18;;;4.78;;
45114;SDS011;30877;43.706;10.780;2022-10-16T10:49:03;8.18;;;4.88;;
45114;SDS011;30877;43.706;10.780;2022-10-16T10:51:57;14.57;;;10.95;;
45114;SDS011;30877;43.706;10.780;2022-10-16T10:54:36;8.23;;;5.50;;
45114;SDS011;30877;43.706;10.780;2022-10-16T10:57:09;11.05;;;6.20;;
45114;SDS011;30877;43.706;10.780;2022-10-16T11:02:30;6.60;;;4.47;;
45114;SDS011;30877;43.706;10.780;2022-10-16T11:08:09;6.95;;;3.53;;
45114;SDS011;30877;43.706;10.780;2022-10-16T11:10:45;5.78;;;4.43;;
45114;SDS011;30877;43.706;10.780;2022-10-16T11:13:20;8.48;;;4.25;;
45114;SDS011;30877;43.706;10.780;2022-10-16T11:15:56;7.53;;;4.00;;
45114;SDS011;30877;43.706;10.780;2022-10-16T11:18:27;5.65;;;4.57;;
45114;SDS011;30877;43.706;10.780;2022-10-16T11:21:00;5.00;;;3.50;;
45114;SDS011;30877;43.706;10.780;2022-10-16T11:23:35;6.28;;;3.40;;
45114;SDS011;30877;43.706;10.780;2022-10-16T11:28:42;4.35;;;3.15;;
45114;SDS011;30877;43.706;10.780;2022-10-16T11:31:14;3.85;;;2.85;;
45114;SDS011;30877;43.706;10.780;2022-10-16T11:33:47;5.22;;;3.10;;
45114;SDS011;30877;43.706;10.780;2022-10-16T11:36:22;4.15;;;2.90;;
45114;SDS011;30877;43.706;10.780;2022-10-16T11:38:58;5.93;;;2.85;;
45114;SDS011;30877;43.706;10.780;2022-10-16T11:41:34;4.88;;;2.88;;
45114;SDS011;30877;43.706;10.780;2022-10-16T11:44:12;4.45;;;3.00;;
45114;SDS011;30877;43.706;10.780;2022-10-16T11:46:48;4.28;;;2.60;;
45114;SDS011;30877;43.706;10.780;2022-10-16T11:49:39;3.55;;;2.53;;
45114;SDS011;30877;43.706;10.780;2022-10-16T11:52:11;4.05;;;2.35;;
45114;SDS011;30877;43.706;10.780;2022-10-16T11:54:45;5.03;;;2.90;;
45114;SDS011;30877;43.706;10.780;2022-10-16T11:57:17;4.20;;;2.38;;
45114;SDS011;30877;43.706;10.780;2022-10-16T11:59:48;5.00;;;2.85;;
45114;SDS011;30877;43.706;10.780;2022-10-16T12:02:28;6.22;;;2.63;;
45114;SDS011;30877;43.706;10.780;2022-10-16T12:05:18;3.78;;;2.50;;
45114;SDS011;30877;43.706;10.780;2022-10-16T12:07:53;4.18;;;3.00;;
45114;SDS011;30877;43.706;10.780;2022-10-16T12:10:31;3.05;;;2.72;;
45114;SDS011;30877;43.706;10.780;2022-10-16T12:13:03;4.97;;;3.20;;
45114;SDS011;30877;43.706;10.780;2022-10-16T12:15:33;4.07;;;2.50;;
45114;SDS011;30877;43.706;10.780;2022-10-16T12:18:21;3.45;;;2.30;;
45114;SDS011;30877;43.706;10.780;2022-10-16T12:21:00;4.50;;;2.70;;
45114;SDS011;30877;43.706;10.780;2022-10-16T12:23:36;5.60;;;3.58;;
45114;SDS011;30877;43.706;10.780;2022-10-16T12:26:07;3.67;;;2.30;;
45114;SDS011;30877;43.706;10.780;2022-10-16T12:28:35;4.50;;;2.35;;
45114;SDS011;30877;43.706;10.780;2022-10-16T12:31:04;4.05;;;2.17;;
45114;SDS011;30877;43.706;10.780;2022-10-16T12:33:35;5.15;;;2.50;;
45114;SDS011;30877;43.706;10.780;2022-10-16T12:36:08;3.40;;;2.05;;
45114;SDS011;30877;43.706;10.780;2022-10-16T12:38:45;4.40;;;2.70;;
45114;SDS011;30877;43.706;10.780;2022-10-16T12:41:25;2.90;;;2.28;;
45114;SDS011;30877;43.706;10.780;2022-10-16T12:43:55;4.30;;;2.20;;
45114;SDS011;30877;43.706;10.780;2022-10-16T12:46:24;5.20;;;2.40;;
45114;SDS011;30877;43.706;10.780;2022-10-16T12:49:21;4.03;;;2.50;;
45114;SDS011;30877;43.706;10.780;2022-10-16T12:51:56;4.93;;;2.50;;
45114;SDS011;30877;43.706;10.780;2022-10-16T12:54:26;3.08;;;2.30;;
45114;SDS011;30877;43.706;10.780;2022-10-16T12:59:51;4.75;;;2.47;;
45114;SDS011;30877;43.706;10.780;2022-10-16T13:02:48;4.07;;;2.00;;
45114;SDS011;30877;43.706;10.780;2022-10-16T13:05:33;4.13;;;2.67;;
45114;SDS011;30877;43.706;10.780;2022-10-16T13:08:13;5.50;;;2.70;;
45114;SDS011;30877;43.706;10.780;2022-10-16T13:16:22;4.90;;;2.47;;
45114;SDS011;30877;43.706;10.780;2022-10-16T13:18:58;3.00;;;1.90;;
45114;SDS011;30877;43.706;10.780;2022-10-16T13:21:38;6.35;;;2.38;;
45114;SDS011;30877;43.706;10.780;2022-10-16T13:24:19;3.92;;;2.20;;
45114;SDS011;30877;43.706;10.780;2022-10-16T13:26:57;5.45;;;2.20;;
45114;SDS011;30877;43.706;10.780;2022-10-16T13:30:52;6.72;;;2.30;;
45114;SDS011;30877;43.706;10.780;2022-10-16T13:33:25;3.03;;;1.80;;
45114;SDS011;30877;43.706;10.780;2022-10-16T13:35:58;3.42;;;2.10;;
45114;SDS011;30877;43.706;10.780;2022-10-16T13:38:27;2.65;;;1.77;;
45114;SDS011;30877;43.706;10.780;2022-10-16T13:40:58;5.07;;;2.00;;
45114;SDS011;30877;43.706;10.780;2022-10-16T13:43:36;3.47;;;1.90;;
45114;SDS011;30877;43.706;10.780;2022-10-16T13:46:11;3.90;;;1.83;;
45114;SDS011;30877;43.706;10.780;2022-10-16T13:48:41;2.50;;;1.70;;
45114;SDS011;30877;43.706;10.780;2022-10-16T13:51:12;2.38;;;1.70;;
45114;SDS011;30877;43.706;10.780;2022-10-16T13:53:41;3.28;;;1.95;;
45114;SDS011;30877;43.706;10.780;2022-10-16T13:56:11;2.83;;;1.63;;
45114;SDS011;30877;43.706;10.780;2022-10-16T13:58:41;3.92;;;2.03;;
45114;SDS011;30877;43.706;10.780;2022-10-16T14:01:16;3.38;;;1.63;;
45114;SDS011;30877;43.706;10.780;2022-10-16T14:03:46;5.32;;;1.98;;
45114;SDS011;30877;43.706;10.780;2022-10-16T14:06:16;3.58;;;1.73;;
45114;SDS011;30877;43.706;10.780;2022-10-16T14:08:52;4.22;;;1.85;;
45114;SDS011;30877;43.706;10.780;2022-10-16T14:11:26;2.20;;;2.00;;
45114;SDS011;30877;43.706;10.780;2022-10-16T14:13:54;3.17;;;2.25;;
45114;SDS011;30877;43.706;10.780;2022-10-16T14:16:25;3.88;;;2.17;;
45114;SDS011;30877;43.706;10.780;2022-10-16T14:18:56;4.25;;;2.67;;
45114;SDS011;30877;43.706;10.780;2022-10-16T14:21:26;4.60;;;2.00;;
45114;SDS011;30877;43.706;10.780;2022-10-16T14:23:55;2.90;;;2.17;;
45114;SDS011;30877;43.706;10.780;2022-10-16T14:26:23;2.70;;;2.30;;
45114;SDS011;30877;43.706;10.780;2022-10-16T14:29:11;6.30;;;4.00;;
45114;SDS011;30877;43.706;10.780;2022-10-16T14:31:42;7.68;;;5.55;;
45114;SDS011;30877;43.706;10.780;2022-10-16T14:34:26;6.97;;;4.35;;
45114;SDS011;30877;43.706;10.780;2022-10-16T14:39:26;4.28;;;2.72;;
45114;SDS011;30877;43.706;10.780;2022-10-16T14:41:57;3.47;;;2.72;;
45114;SDS011;30877;43.706;10.780;2022-10-16T14:44:30;3.95;;;2.45;;
45114;SDS011;30877;43.706;10.780;2022-10-16T14:47:08;5.68;;;2.47;;
45114;SDS011;30877;43.706;10.780;2022-10-16T14:49:41;4.95;;;2.60;;
45114;SDS011;30877;43.706;10.780;2022-10-16T14:52:10;3.63;;;2.40;;
45114;SDS011;30877;43.706;10.780;2022-10-16T14:54:39;6.28;;;2.90;;
45114;SDS011;30877;43.706;10.780;2022-10-16T14:57:14;5.55;;;2.65;;
45114;SDS011;30877;43.706;10.780;2022-10-16T14:59:45;7.50;;;3.20;;
45114;SDS011;30877;43.706;10.780;2022-10-16T15:02:18;4.50;;;2.95;;
45114;SDS011;30877;43.706;10.780;2022-10-16T15:04:55;6.00;;;2.70;;
45114;SDS011;30877;43.706;10.780;2022-10-16T15:07:24;5.25;;;2.30;;
45114;SDS011;30877;43.706;10.780;2022-10-16T15:09:52;6.38;;;2.90;;
45114;SDS011;30877;43.706;10.780;2022-10-16T15:12:20;5.07;;;2.38;;
45114;SDS011;30877;43.706;10.780;2022-10-16T15:14:49;8.60;;;2.78;;
45114;SDS011;30877;43.706;10.780;2022-10-16T15:17:18;6.40;;;4.18;;
45114;SDS011;30877;43.706;10.780;2022-10-16T15:19:48;6.82;;;4.20;;
45114;SDS011;30877;43.706;10.780;2022-10-16T15:22:16;8.38;;;4.90;;
45114;SDS011;30877;43.706;10.780;2022-10-16T15:24:44;6.88;;;5.13;;
45114;SDS011;30877;43.706;10.780;2022-10-16T15:27:12;6.68;;;4.90;;
45114;SDS011;30877;43.706;10.780;2022-10-16T15:29:40;12.15;;;8.75;;